Time;durP1;ratioP1;P1;durP2;ratioP2;P2;SDS_P1;SDS_P2;PMS_P1;PMS_P2;Temp;Humidity;BMP_temperature;BMP_pressure;BME280_temperature;BME280_humidity;BME280_pressure;Samples;Min_cycle;Max_cycle;Signal;HPM_P1;HPM_P2
2024/01/20 00:00:33;;;;;;;3.55;1.42;;;;;;;1.34;67.84;100773.91;4980421;28;20045;-48
2024/01/20 00:03:00;;;;;;;3.70;2.03;;;;;;;1.33;68.32;100777.28;4984445;28;20062;-47
2024/01/20 00:05:27;;;;;;;8.32;2.33;;;;;;;1.32;67.88;100780.66;4987589;28;20078;-48
2024/01/20 00:07:55;;;;;;;2.75;1.23;;;;;;;1.31;67.68;100776.34;4992723;28;20069;-50
2024/01/20 00:10:22;;;;;;;6.88;2.55;;;;;;;1.30;67.89;100779.69;4996020;28;20054;-51
2024/01/20 00:12:50;;;;;;;5.30;2.47;;;;;;;1.30;68.00;100779.69;4982228;28;20057;-47
2024/01/20 00:15:17;;;;;;;4.68;2.28;;;;;;;1.28;67.89;100774.50;4986947;28;20439;-51
2024/01/20 00:17:44;;;;;;;6.20;2.80;;;;;;;1.27;68.81;100770.22;4986233;28;20058;-49
2024/01/20 00:20:12;;;;;;;6.25;2.75;;;;;;;1.26;68.16;100774.47;4990199;28;20050;-52
2024/01/20 00:22:39;;;;;;;11.32;4.70;;;;;;;1.26;67.67;100774.47;4980560;28;20050;-46
2024/01/20 00:25:08;;;;;;;6.13;3.22;;;;;;;1.24;67.83;100768.41;4986377;28;20341;-48
2024/01/20 00:27:37;;;;;;;7.30;2.35;;;;;;;1.23;68.15;100764.09;4985755;28;20516;-46
2024/01/20 00:30:05;;;;;;;5.10;3.38;;;;;;;1.22;68.96;100772.53;4991426;28;20129;-51
2024/01/20 00:32:32;;;;;;;4.88;1.75;;;;;;;1.23;67.69;100774.31;4989542;28;20041;-48
2024/01/20 00:34:58;;;;;;;1.83;1.02;;;;;;;1.22;68.74;100772.53;4982256;28;20065;-48
2024/01/20 00:37:36;;;;;;;4.82;1.75;;;;;;;1.24;67.92;100764.97;4985788;28;20455;-47
2024/01/20 00:40:04;;;;;;;3.75;1.35;;;;;;;1.26;68.21;100773.56;4983289;28;20053;-46
2024/01/20 00:42:33;;;;;;;3.67;1.63;;;;;;;1.28;68.35;100766.84;4982015;28;20047;-45
2024/01/20 00:44:59;;;;;;;3.58;1.73;;;;;;;1.30;67.87;100765.25;4983591;28;20065;-44
2024/01/20 00:47:26;;;;;;;2.97;1.52;;;;;;;1.31;68.04;100773.81;4987286;28;20104;-51
2024/01/20 00:49:53;;;;;;;2.75;1.80;;;;;;;1.34;67.45;100763.72;4983266;28;21069;-53
2024/01/20 00:52:20;;;;;;;2.63;1.30;;;;;;;1.33;68.03;100754.31;4983501;28;20069;-47
2024/01/20 00:54:47;;;;;;;2.55;1.85;;;;;;;1.36;67.11;100757.00;4983223;28;20861;-49
2024/01/20 00:57:14;;;;;;;3.58;1.05;;;;;;;1.37;68.39;100756.19;4982489;28;20057;-47
2024/01/20 00:59:41;;;;;;;1.98;1.15;;;;;;;1.38;67.40;100747.72;4988181;28;20058;-48
2024/01/20 01:02:08;;;;;;;2.63;1.42;;;;;;;1.38;67.64;100752.84;4979193;28;20062;-46
2024/01/20 01:04:35;;;;;;;2.88;1.70;;;;;;;1.39;67.24;100739.28;4989408;28;20046;-49
2024/01/20 01:07:02;;;;;;;2.47;1.23;;;;;;;1.41;67.94;100742.75;4984725;28;20092;-50
2024/01/20 01:09:29;;;;;;;4.18;1.08;;;;;;;1.41;67.59;100747.88;4995033;28;20052;-56
2024/01/20 01:11:58;;;;;;;2.92;1.88;;;;;;;1.40;68.12;100746.13;4995912;28;20137;-48
2024/01/20 01:14:24;;;;;;;2.85;1.70;;;;;;;1.45;66.79;100739.56;4992038;28;20050;-51
2024/01/20 01:16:51;;;;;;;1.35;0.95;;;;;;;1.43;67.27;100741.19;4989333;28;20086;-48
2024/01/20 01:19:19;;;;;;;2.35;1.38;;;;;;;1.49;67.92;100738.88;4986418;28;20495;-48
2024/01/20 01:21:46;;;;;;;1.90;1.10;;;;;;;1.50;66.82;100743.22;4993353;28;20045;-53
2024/01/20 01:24:13;;;;;;;2.78;1.58;;;;;;;1.52;67.42;100736.47;4985380;28;20042;-49
2024/01/20 01:26:40;;;;;;;2.20;1.08;;;;;;;1.53;66.59;100732.25;4991041;28;20113;-50
2024/01/20 01:29:07;;;;;;;1.55;1.40;;;;;;;1.54;67.75;100740.00;4988168;28;20055;-48
2024/01/20 01:31:34;;;;;;;2.67;1.70;;;;;;;1.52;66.55;100731.38;4983770;28;20050;-49
2024/01/20 01:34:01;;;;;;;2.60;1.23;;;;;;;1.52;67.14;100726.25;4990439;28;20046;-47
2024/01/20 01:36:28;;;;;;;2.22;1.30;;;;;;;1.54;67.34;100739.09;4989615;28;20073;-52
2024/01/20 01:38:55;;;;;;;2.42;1.25;;;;;;;1.53;66.21;100732.25;4979075;28;20420;-51
2024/01/20 01:41:21;;;;;;;2.35;2.08;;;;;;;1.51;67.40;100732.19;4988446;28;20384;-48
2024/01/20 01:43:48;;;;;;;3.53;1.35;;;;;;;1.51;66.48;100744.94;4989855;28;20077;-52
2024/01/20 01:46:15;;;;;;;3.95;1.05;;;;;;;1.52;67.44;100736.47;4977482;28;20156;-48
2024/01/20 01:48:42;;;;;;;2.05;0.82;;;;;;;1.52;66.83;100731.38;4990667;28;20042;-51
2024/01/20 01:51:08;;;;;;;3.53;1.08;;;;;;;1.50;66.50;100733.00;4977505;28;20112;-47
2024/01/20 01:53:36;;;;;;;3.85;1.40;;;;;;;1.54;67.17;100739.09;4984265;28;20050;-47
2024/01/20 01:56:03;;;;;;;1.17;1.05;;;;;;;1.51;67.30;100736.41;4990196;28;20078;-48
2024/01/20 01:58:29;;;;;;;3.70;0.90;;;;;;;1.56;68.11;100747.72;4988514;28;20487;-49
2024/01/20 02:00:56;;;;;;;2.45;1.40;;;;;;;1.57;67.41;100752.00;4983149;28;20061;-48
2024/01/20 02:03:23;;;;;;;1.38;0.60;;;;;;;1.59;66.98;100752.94;4990978;28;20499;-47
2024/01/20 02:05:51;;;;;;;2.15;0.90;;;;;;;1.60;67.45;100756.38;4981359;28;20046;-51
2024/01/20 02:08:20;;;;;;;2.72;1.73;;;;;;;1.64;67.70;100755.72;4970372;28;20097;-50
2024/01/20 02:10:47;;;;;;;2.30;1.02;;;;;;;1.64;67.97;100755.72;4990672;28;20047;-52
2024/01/20 02:13:15;;;;;;;0.98;0.80;;;;;;;1.62;66.94;100757.34;4987870;28;20051;-49
2024/01/20 02:15:42;;;;;;;3.95;1.35;;;;;;;1.64;67.60;100763.38;4987569;28;20135;-47
2024/01/20 02:18:09;;;;;;;1.52;0.75;;;;;;;1.62;67.79;100762.44;4986167;28;20049;-50
2024/01/20 02:20:37;;;;;;;1.52;0.80;;;;;;;1.64;66.77;100766.81;4985075;28;20058;-52
2024/01/20 02:23:04;;;;;;;1.58;0.90;;;;;;;1.70;67.89;100766.22;4985393;28;20050;-52
2024/01/20 02:25:31;;;;;;;5.57;1.35;;;;;;;1.70;66.43;100763.66;4989273;28;20676;-49
2024/01/20 02:27:58;;;;;;;1.55;0.80;;;;;;;1.69;67.20;100767.00;4984491;28;20053;-49
2024/01/20 02:30:24;;;;;;;2.58;0.60;;;;;;;1.70;66.81;100753.44;4989851;28;20514;-47
2024/01/20 02:32:51;;;;;;;2.67;0.85;;;;;;;1.72;67.46;100749.25;4979147;28;20141;-46
2024/01/20 02:35:19;;;;;;;3.05;1.58;;;;;;;1.74;67.44;100757.88;4982871;28;20553;-46
2024/01/20 02:37:47;;;;;;;3.95;1.02;;;;;;;1.72;67.01;100749.25;4977764;28;20043;-46
2024/01/20 02:40:14;;;;;;;1.40;1.15;;;;;;;1.70;67.57;100756.00;4987823;28;20050;-45
2024/01/20 02:42:42;;;;;;;3.15;1.25;;;;;;;1.69;67.98;100763.59;4980722;28;20054;-47
2024/01/20 02:45:09;;;;;;;0.98;0.85;;;;;;;1.65;67.21;100747.25;4978549;28;20085;-52
2024/01/20 02:47:36;;;;;;;1.52;0.73;;;;;;;1.63;67.97;100752.31;4986345;28;20100;-51
2024/01/20 02:50:03;;;;;;;2.33;1.42;;;;;;;1.68;67.72;100742.28;4986490;28;20054;-50
2024/01/20 02:52:31;;;;;;;0.88;0.55;;;;;;;1.69;66.80;100749.13;4982865;28;20415;-48
2024/01/20 02:54:58;;;;;;;2.33;1.02;;;;;;;1.69;67.38;100744.00;4986216;28;20046;-49
2024/01/20 02:57:25;;;;;;;2.50;0.98;;;;;;;1.70;66.53;100750.91;4987140;28;20046;-50
2024/01/20 02:59:51;;;;;;;1.65;0.93;;;;;;;1.73;66.82;100761.25;4986741;28;20054;-50
2024/01/20 03:02:18;;;;;;;2.47;1.88;;;;;;;1.73;66.94;100745.94;4984713;28;20047;-48
2024/01/20 03:04:45;;;;;;;1.70;1.10;;;;;;;1.74;67.41;100750.22;4985390;28;20085;-54
2024/01/20 03:07:14;;;;;;;3.28;0.93;;;;;;;1.73;67.35;100745.94;4985684;28;20050;-46
2024/01/20 03:09:40;;;;;;;4.32;1.65;;;;;;;1.72;67.78;100745.84;4992340;28;20061;-46
2024/01/20 03:12:09;;;;;;;8.63;4.00;;;;;;;1.72;67.41;100749.25;4983678;28;20043;-50
2024/01/20 03:14:37;;;;;;;9.27;4.05;;;;;;;1.73;67.57;100751.03;4988125;28;20571;-49
2024/01/20 03:17:04;;;;;;;11.10;3.58;;;;;;;1.70;67.52;100753.44;4982532;28;20045;-51
2024/01/20 03:19:32;;;;;;;11.00;4.13;;;;;;;1.68;66.93;100742.28;4986621;28;20062;-49
2024/01/20 03:21:59;;;;;;;6.43;3.33;;;;;;;1.69;67.57;100748.25;4985823;28;20042;-50
2024/01/20 03:24:26;;;;;;;12.55;3.50;;;;;;;1.66;67.86;100744.75;4990996;28;20053;-50
2024/01/20 03:26:55;;;;;;;2.63;1.55;;;;;;;1.61;67.43;100738.56;4990027;28;20507;-51
2024/01/20 03:29:25;;;;;;;7.07;2.33;;;;;;;1.61;66.75;100742.78;4985059;28;20046;-48
2024/01/20 03:31:52;;;;;;;8.95;2.95;;;;;;;1.61;66.67;100745.34;4984383;28;20054;-47
2024/01/20 03:34:20;;;;;;;2.05;0.80;;;;;;;1.63;67.50;100743.75;4981198;28;20470;-49
2024/01/20 03:36:49;;;;;;;5.25;1.70;;;;;;;1.62;66.89;100737.75;4979804;28;20055;-48
2024/01/20 03:39:15;;;;;;;3.85;1.85;;;;;;;1.62;66.76;100736.91;4979442;28;20073;-55
2024/01/20 03:41:42;;;;;;;5.30;2.05;;;;;;;1.60;66.78;100739.38;4986018;28;20056;-49
2024/01/20 03:44:09;;;;;;;3.42;1.40;;;;;;;1.59;66.78;100741.88;4989084;28;20702;-47
2024/01/20 03:46:36;;;;;;;6.68;1.52;;;;;;;1.61;66.91;100735.13;4982158;28;20057;-49
2024/01/20 03:49:03;;;;;;;4.22;1.65;;;;;;;1.56;67.28;100728.97;4989889;28;20371;-51
2024/01/20 03:51:31;;;;;;;2.03;0.85;;;;;;;1.61;67.81;100737.69;4982706;28;20430;-49
2024/01/20 03:53:58;;;;;;;2.15;1.00;;;;;;;1.54;67.74;100737.44;4990147;28;20061;-53
2024/01/20 03:56:24;;;;;;;2.35;0.88;;;;;;;1.56;67.46;100731.50;4987765;28;20104;-48
2024/01/20 03:58:51;;;;;;;2.97;1.23;;;;;;;1.52;66.95;100727.97;4987097;28;20518;-46
2024/01/20 04:01:18;;;;;;;3.20;1.00;;;;;;;1.53;66.43;100730.56;4985990;28;20050;-48
2024/01/20 04:03:44;;;;;;;4.03;1.08;;;;;;;1.54;67.62;100729.78;4990328;28;20038;-48
2024/01/20 04:06:11;;;;;;;4.50;1.75;;;;;;;1.54;67.31;100731.44;4982492;28;20543;-48
2024/01/20 04:08:38;;;;;;;3.10;1.05;;;;;;;1.53;67.77;100733.09;4986890;28;20101;-51
2024/01/20 04:11:08;;;;;;;3.28;1.58;;;;;;;1.52;67.05;100731.38;4988891;28;20053;-46
2024/01/20 04:13:34;;;;;;;4.68;1.30;;;;;;;1.52;67.51;100733.91;4987508;28;20061;-51
2024/01/20 04:16:01;;;;;;;5.00;1.33;;;;;;;1.53;67.44;100733.09;4981590;28;20132;-47
2024/01/20 04:18:27;;;;;;;7.18;1.48;;;;;;;1.46;68.09;100738.75;4979503;28;20050;-50
2024/01/20 04:20:57;;;;;;;3.42;1.35;;;;;;;1.49;68.11;100728.66;4982416;28;20050;-48
2024/01/20 04:23:24;;;;;;;1.27;1.17;;;;;;;1.45;67.10;100737.00;4985993;28;20049;-48
2024/01/20 04:25:50;;;;;;;4.88;1.70;;;;;;;1.45;68.31;100725.94;4982705;28;20053;-47
2024/01/20 04:28:17;;;;;;;1.95;1.42;;;;;;;1.44;67.11;100726.72;4980279;28;20061;-51
2024/01/20 04:30:44;;;;;;;1.25;0.82;;;;;;;1.42;67.66;100719.00;4984743;28;20545;-43
2024/01/20 04:33:11;;;;;;;2.80;0.85;;;;;;;1.41;68.22;100723.22;4991658;28;20104;-47
2024/01/20 04:35:40;;;;;;;1.80;1.20;;;;;;;1.40;67.65;100718.94;4986183;28;20140;-52
2024/01/20 04:38:07;;;;;;;0.75;0.65;;;;;;;1.38;68.76;100719.66;4986698;28;20443;-47
2024/01/20 04:40:35;;;;;;;3.20;1.13;;;;;;;1.38;68.89;100717.09;4983254;28;20073;-48
2024/01/20 04:43:03;;;;;;;1.42;1.00;;;;;;;1.39;68.19;100721.41;4984539;28;20051;-46
2024/01/20 04:45:30;;;;;;;1.50;0.70;;;;;;;1.38;67.90;100710.31;4986619;28;20050;-51
2024/01/20 04:48:01;;;;;;;1.92;0.98;;;;;;;1.40;68.35;100715.50;4995192;28;20065;-46
2024/01/20 04:50:28;;;;;;;2.97;0.60;;;;;;;1.40;68.84;100715.50;4985301;28;20050;-50
2024/01/20 04:52:54;;;;;;;2.28;1.30;;;;;;;1.39;69.08;100714.63;4990267;28;20053;-52
2024/01/20 04:55:21;;;;;;;1.15;1.00;;;;;;;1.38;69.21;100714.53;4982824;28;20054;-47
2024/01/20 04:57:48;;;;;;;1.70;0.80;;;;;;;1.36;70.14;100719.59;4991440;28;20487;-51
2024/01/20 05:00:16;;;;;;;1.40;1.05;;;;;;;1.36;69.54;100708.50;4980978;28;20054;-51
2024/01/20 05:02:43;;;;;;;2.63;0.93;;;;;;;1.42;69.40;100713.91;4991540;28;20046;-50
2024/01/20 05:05:10;;;;;;;1.88;1.35;;;;;;;1.45;69.54;100714.03;4988013;28;20085;-49
2024/01/20 05:07:36;;;;;;;3.03;0.70;;;;;;;1.46;69.30;100705.56;4992403;28;20073;-48
2024/01/20 05:10:04;;;;;;;1.20;0.43;;;;;;;1.48;69.31;100714.16;4987938;28;20051;-45
2024/01/20 05:12:34;;;;;;;3.08;1.25;;;;;;;1.50;68.34;100712.56;4990385;28;20124;-49
2024/01/20 05:15:00;;;;;;;1.70;1.00;;;;;;;1.52;68.73;100708.38;4987400;28;20573;-47
2024/01/20 05:17:27;;;;;;;1.80;0.88;;;;;;;1.52;68.70;100710.94;4985024;28;20078;-47
2024/01/20 05:19:54;;;;;;;6.15;1.33;;;;;;;1.52;69.04;100705.84;4985570;28;20062;-51
2024/01/20 05:22:21;;;;;;;2.70;0.98;;;;;;;1.51;68.88;100709.19;4986340;28;20478;-52
2024/01/20 05:24:47;;;;;;;0.93;0.70;;;;;;;1.46;69.02;100705.56;4987329;28;20788;-46
2024/01/20 05:27:14;;;;;;;0.60;0.43;;;;;;;1.51;68.92;100708.31;4980155;28;20046;-51
2024/01/20 05:29:41;;;;;;;0.50;0.32;;;;;;;1.50;68.87;100702.34;4985798;28;20047;-49
2024/01/20 05:32:09;;;;;;;1.40;0.70;;;;;;;1.54;68.68;100708.47;4994070;28;20050;-48
2024/01/20 05:34:36;;;;;;;1.20;1.05;;;;;;;1.54;69.58;100699.13;4984265;28;20069;-45
2024/01/20 05:37:03;;;;;;;2.20;0.45;;;;;;;1.57;70.12;100702.63;4996316;28;20446;-47
2024/01/20 05:39:29;;;;;;;1.50;1.20;;;;;;;1.54;69.21;100706.78;4988993;28;20081;-49
2024/01/20 05:41:56;;;;;;;1.00;0.73;;;;;;;1.52;69.58;100713.50;4989749;28;20058;-47
2024/01/20 05:44:23;;;;;;;2.83;1.08;;;;;;;1.61;69.92;100713.03;4989042;28;20053;-49
2024/01/20 05:46:50;;;;;;;4.38;0.82;;;;;;;1.61;69.09;100712.16;4986386;28;20042;-47
2024/01/20 05:49:17;;;;;;;2.53;1.33;;;;;;;1.63;69.93;100708.00;4984070;28;20053;-49
2024/01/20 05:51:44;;;;;;;1.50;0.60;;;;;;;1.64;68.80;100709.75;4990086;28;20050;-48
2024/01/20 05:54:11;;;;;;;1.63;0.88;;;;;;;1.63;70.07;100708.88;4990580;28;20050;-52
2024/01/20 05:56:37;;;;;;;1.85;1.10;;;;;;;1.64;69.51;100696.97;4983281;28;20042;-50
2024/01/20 05:59:04;;;;;;;1.42;0.80;;;;;;;1.63;69.11;100702.91;4990988;28;20056;-52
2024/01/20 06:01:32;;;;;;;3.40;0.77;;;;;;;1.63;70.01;100698.66;4988413;28;20049;-47
2024/01/20 06:03:59;;;;;;;0.45;0.40;;;;;;;1.61;69.17;100709.59;4990462;28;20047;-47
2024/01/20 06:06:26;;;;;;;0.63;0.57;;;;;;;1.60;69.05;100700.19;4980614;28;20078;-48
2024/01/20 06:08:52;;;;;;;1.63;1.25;;;;;;;1.62;68.70;100689.25;4983051;28;20140;-49
2024/01/20 06:11:19;;;;;;;1.02;0.60;;;;;;;1.64;69.64;100704.63;4987464;28;20069;-50
2024/01/20 06:13:46;;;;;;;2.58;0.50;;;;;;;1.62;69.47;100696.06;4985851;28;20053;-48
2024/01/20 06:16:12;;;;;;;2.00;0.90;;;;;;;1.63;69.42;100697.78;4984407;28;20423;-52
2024/01/20 06:18:39;;;;;;;3.20;1.13;;;;;;;1.65;70.13;100706.38;4983055;28;20061;-48
2024/01/20 06:21:07;;;;;;;1.23;1.00;;;;;;;1.66;69.65;100703.88;4985302;28;20108;-53
2024/01/20 06:23:34;;;;;;;1.05;0.95;;;;;;;1.66;68.99;100697.94;4984044;28;20545;-47
2024/01/20 06:26:01;;;;;;;2.72;1.05;;;;;;;1.69;69.93;100702.28;4982191;28;20105;-51
2024/01/20 06:28:29;;;;;;;0.43;0.35;;;;;;;1.67;68.89;100689.44;4989447;28;20042;-47
2024/01/20 06:30:56;;;;;;;3.22;1.35;;;;;;;1.73;68.83;100689.72;4990811;28;20054;-49
2024/01/20 06:33:23;;;;;;;1.92;0.75;;;;;;;1.76;69.59;100689.00;4985706;28;20448;-46
2024/01/20 06:35:50;;;;;;;1.50;0.60;;;;;;;1.78;69.35;100683.13;4990227;28;20050;-49
2024/01/20 06:38:17;;;;;;;1.65;1.33;;;;;;;1.80;69.68;100683.19;4988111;28;20059;-45
2024/01/20 06:40:44;;;;;;;2.45;1.23;;;;;;;1.86;68.97;100674.94;4997807;28;20050;-51
2024/01/20 06:43:10;;;;;;;1.02;0.60;;;;;;;1.86;69.51;100685.16;4989745;28;20138;-50
2024/01/20 06:45:37;;;;;;;2.67;0.95;;;;;;;1.89;68.82;100675.06;4981280;28;20049;-48
2024/01/20 06:48:04;;;;;;;0.90;0.50;;;;;;;1.92;68.91;100675.19;4989104;28;20109;-52
2024/01/20 06:50:32;;;;;;;2.55;0.88;;;;;;;1.96;70.06;100671.94;4989608;28;20121;-51
2024/01/20 06:52:59;;;;;;;4.13;1.17;;;;;;;2.02;69.44;100677.31;4992330;28;20050;-49
2024/01/20 06:55:26;;;;;;;3.58;1.27;;;;;;;2.03;69.41;100684.19;4989932;28;20581;-50
2024/01/20 06:57:52;;;;;;;1.13;0.80;;;;;;;2.00;69.79;100678.06;4990049;28;20391;-46
2024/01/20 07:00:19;;;;;;;3.63;0.90;;;;;;;2.08;69.23;100670.72;4986404;28;20293;-51
2024/01/20 07:02:46;;;;;;;2.08;0.82;;;;;;;2.09;69.37;100675.03;4988000;28;20099;-48
2024/01/20 07:05:13;;;;;;;1.05;0.55;;;;;;;2.11;68.08;100670.84;4982618;28;20054;-50
2024/01/20 07:07:41;;;;;;;0.98;0.80;;;;;;;2.12;68.38;100675.16;4980934;28;20510;-48
2024/01/20 07:10:08;;;;;;;1.35;0.50;;;;;;;2.11;68.40;100675.97;4982300;28;20065;-50
2024/01/20 07:12:36;;;;;;;2.45;0.55;;;;;;;2.11;68.61;100660.63;4987093;28;20140;-52
2024/01/20 07:15:05;;;;;;;2.28;1.10;;;;;;;2.12;68.14;100658.13;4970649;28;20046;-48
2024/01/20 07:17:34;;;;;;;5.22;1.00;;;;;;;2.17;69.49;100655.78;4978262;28;20050;-50
2024/01/20 07:20:01;;;;;;;1.25;0.68;;;;;;;2.14;69.73;100661.66;4976353;28;20057;-47
2024/01/20 07:22:28;;;;;;;0.65;0.30;;;;;;;2.12;69.08;100662.38;4970236;28;20047;-51
2024/01/20 07:24:54;;;;;;;2.28;0.77;;;;;;;2.13;69.30;100659.88;4975849;28;20058;-52
2024/01/20 07:27:21;;;;;;;1.65;0.65;;;;;;;2.10;68.73;100667.44;4975287;28;20047;-50
2024/01/20 07:29:48;;;;;;;1.98;0.88;;;;;;;2.07;68.75;100668.97;4976357;28;20711;-46
2024/01/20 07:32:15;;;;;;;2.08;0.88;;;;;;;2.09;69.96;100668.22;4983716;28;20047;-52
2024/01/20 07:34:42;;;;;;;1.20;1.17;;;;;;;2.09;69.58;100663.13;4988333;28;20472;-51
2024/01/20 07:37:10;;;;;;;1.80;1.23;;;;;;;2.10;69.21;100669.13;4983013;28;20502;-52
2024/01/20 07:39:37;;;;;;;4.15;0.80;;;;;;;2.05;69.63;100672.34;4988632;28;20057;-50
2024/01/20 07:42:04;;;;;;;1.25;1.15;;;;;;;2.06;69.18;100683.44;4979661;28;20141;-51
2024/01/20 07:44:30;;;;;;;0.80;0.50;;;;;;;2.08;69.25;100680.94;4982029;28;20046;-48
2024/01/20 07:47:01;;;;;;;2.08;0.82;;;;;;;2.09;68.90;100675.03;4973995;28;20050;-48
2024/01/20 07:49:28;;;;;;;1.23;1.05;;;;;;;2.10;69.34;100676.78;4988283;28;20057;-50
2024/01/20 07:51:54;;;;;;;3.78;0.65;;;;;;;2.09;69.25;100672.50;4982572;28;20054;-49
2024/01/20 07:54:21;;;;;;;0.77;0.75;;;;;;;2.10;69.90;100675.09;4986015;28;20038;-52
2024/01/20 07:56:48;;;;;;;5.15;1.10;;;;;;;2.09;68.27;100672.50;4981959;28;20046;-52
2024/01/20 07:59:16;;;;;;;1.05;0.70;;;;;;;2.12;68.77;100672.59;4981644;28;20575;-51
2024/01/20 08:01:44;;;;;;;1.15;0.50;;;;;;;2.10;68.74;100671.66;4987745;28;20068;-49
2024/01/20 08:04:11;;;;;;;0.80;0.75;;;;;;;2.12;69.00;100675.16;4989216;28;20082;-54
2024/01/20 08:06:38;;;;;;;1.15;0.65;;;;;;;2.10;68.30;100659.78;4980768;28;20055;-49
2024/01/20 08:09:06;;;;;;;1.27;0.90;;;;;;;2.11;68.39;100661.50;4982739;28;20070;-44
2024/01/20 08:11:34;;;;;;;1.27;1.17;;;;;;;2.04;69.26;100659.50;4975179;28;20050;-52
2024/01/20 08:14:01;;;;;;;0.43;0.30;;;;;;;2.09;68.49;100660.56;4981991;28;20046;-46
2024/01/20 08:16:28;;;;;;;2.47;1.65;;;;;;;2.11;68.86;100665.75;4982886;28;20142;-50
2024/01/20 08:18:55;;;;;;;2.20;0.65;;;;;;;2.13;69.30;100656.47;4992283;28;20056;-50
2024/01/20 08:21:22;;;;;;;1.10;1.00;;;;;;;2.15;68.87;100665.06;4982458;28;20073;-49
2024/01/20 08:23:49;;;;;;;0.75;0.75;;;;;;;2.16;68.98;100662.56;4989964;28;20453;-52
2024/01/20 08:26:17;;;;;;;23.42;1.17;;;;;;;2.15;68.21;100653.16;4987557;28;20046;-49
2024/01/20 08:28:44;;;;;;;2.55;1.13;;;;;;;2.16;68.66;100643.81;4991331;28;20116;-51
2024/01/20 08:31:11;;;;;;;5.28;1.52;;;;;;;2.28;68.20;100653.66;4992046;28;20046;-52
2024/01/20 08:33:37;;;;;;;4.28;0.77;;;;;;;2.30;69.02;100657.16;4989915;28;20056;-51
2024/01/20 08:36:05;;;;;;;1.48;1.05;;;;;;;2.35;68.66;100648.00;4991433;28;20443;-50
2024/01/20 08:38:32;;;;;;;0.80;0.75;;;;;;;2.35;68.60;100644.56;4988712;28;20055;-50
2024/01/20 08:40:58;;;;;;;2.92;0.65;;;;;;;2.40;68.02;100653.31;4993449;28;20053;-50
2024/01/20 08:43:27;;;;;;;1.15;0.77;;;;;;;2.46;68.23;100648.41;4988768;28;20108;-50
2024/01/20 08:45:53;;;;;;;1.55;0.80;;;;;;;2.52;67.41;100647.78;4992488;28;20050;-49
2024/01/20 08:48:20;;;;;;;0.85;0.47;;;;;;;2.49;68.09;100645.09;4991264;28;20050;-47
2024/01/20 08:50:47;;;;;;;2.40;1.25;;;;;;;2.59;67.54;100643.78;4992428;28;20516;-47
2024/01/20 08:53:13;;;;;;;2.95;1.23;;;;;;;2.60;68.04;100645.56;4988656;28;20105;-49
2024/01/20 08:55:41;;;;;;;1.75;0.75;;;;;;;2.66;68.41;100650.88;4991038;28;20136;-50
2024/01/20 08:58:08;;;;;;;5.30;1.42;;;;;;;2.69;67.37;100651.00;4998789;28;20054;-47
2024/01/20 09:00:35;;;;;;;1.80;1.30;;;;;;;2.70;67.60;100642.53;4996039;28;20061;-48
2024/01/20 09:03:02;;;;;;;1.83;1.35;;;;;;;2.74;67.07;100639.28;4994831;28;20447;-49
2024/01/20 09:05:28;;;;;;;0.98;0.93;;;;;;;2.80;67.33;100638.63;4992076;28;20046;-52
2024/01/20 09:08:05;;;;;;;3.20;1.13;;;;;;;2.83;68.22;100638.75;4996562;28;20065;-48
2024/01/20 09:10:33;;;;;;;1.58;1.45;;;;;;;2.83;67.93;100634.53;4986569;28;22473;-50
2024/01/20 09:13:00;;;;;;;2.63;0.55;;;;;;;2.85;67.33;100628.59;4991031;28;20046;-49
2024/01/20 09:15:27;;;;;;;0.85;0.63;;;;;;;2.91;67.72;100647.59;4989508;28;20454;-52
2024/01/20 09:17:54;;;;;;;2.08;1.52;;;;;;;2.98;66.79;100643.59;4990301;28;20047;-51
2024/01/20 09:20:22;;;;;;;1.90;0.93;;;;;;;3.03;67.46;100647.19;4989934;28;20558;-53
2024/01/20 09:22:49;;;;;;;3.72;0.90;;;;;;;3.08;66.67;100638.00;4990360;28;20058;-48
2024/01/20 09:25:16;;;;;;;1.02;0.85;;;;;;;3.10;66.86;100632.94;4992773;28;20047;-48
2024/01/20 09:27:43;;;;;;;2.22;0.80;;;;;;;3.16;67.44;100645.97;4988991;28;20117;-52
2024/01/20 09:30:10;;;;;;;0.65;0.60;;;;;;;3.13;67.16;100638.19;4996497;28;20042;-54
2024/01/20 09:32:37;;;;;;;3.25;0.70;;;;;;;3.22;66.84;100643.63;4991181;28;20105;-46
2024/01/20 09:35:04;;;;;;;1.33;0.50;;;;;;;3.21;66.73;100641.03;4990049;28;20093;-51
2024/01/20 09:37:32;;;;;;;1.42;0.95;;;;;;;3.25;66.47;100645.44;4991702;28;20053;-53
2024/01/20 09:40:00;;;;;;;3.53;1.75;;;;;;;3.36;66.69;100647.50;4992946;28;20058;-52
2024/01/20 09:42:28;;;;;;;2.22;1.02;;;;;;;3.46;66.45;100650.50;4994702;28;20069;-49
2024/01/20 09:44:55;;;;;;;1.67;0.70;;;;;;;3.54;66.16;100658.44;4989828;28;20054;-55
2024/01/20 09:47:22;;;;;;;1.05;0.60;;;;;;;3.66;66.05;100649.44;4989087;28;20089;-47
2024/01/20 09:49:49;;;;;;;1.63;0.82;;;;;;;3.71;65.85;100648.78;4987861;28;20123;-48
2024/01/20 09:52:22;;;;;;;1.38;1.08;;;;;;;3.84;65.92;100660.34;4990314;28;20046;-48
2024/01/20 09:55:21;;;;;;;3.28;0.70;;;;;;;3.85;66.22;100656.09;4987647;28;20038;-48
2024/01/20 09:57:49;;;;;;;2.08;0.93;;;;;;;3.99;66.08;100659.13;4987715;28;20141;-55
2024/01/20 10:00:18;;;;;;;2.53;1.67;;;;;;;4.00;65.53;100660.88;4991189;28;20058;-53
2024/01/20 10:02:45;;;;;;;1.40;0.70;;;;;;;4.01;65.42;100654.91;4989959;28;20562;-52
2024/01/20 10:05:12;;;;;;;1.55;0.60;;;;;;;4.11;65.80;100659.53;4985940;28;20042;-47
2024/01/20 10:07:40;;;;;;;9.75;1.00;;;;;;;4.16;66.03;100661.38;4989130;28;20512;-50
2024/01/20 10:10:09;;;;;;;1.40;1.27;;;;;;;4.19;65.44;100662.34;4984194;28;20050;-52
2024/01/20 10:12:36;;;;;;;1.25;1.17;;;;;;;4.23;65.46;100673.59;4986799;28;20069;-53
2024/01/20 10:15:04;;;;;;;3.22;0.90;;;;;;;4.26;65.10;100668.56;4985117;28;20133;-47
2024/01/20 10:17:36;;;;;;;3.15;0.75;;;;;;;4.22;65.57;100669.28;4987794;28;20054;-51
2024/01/20 10:20:04;;;;;;;3.30;0.80;;;;;;;4.31;65.46;100661.88;4989650;28;20050;-50
2024/01/20 10:22:33;;;;;;;2.90;0.57;;;;;;;4.37;65.80;100672.38;4988674;28;22485;-55
2024/01/20 10:24:59;;;;;;;3.63;1.80;;;;;;;4.49;65.92;100665.84;4990617;28;20041;-52
2024/01/20 10:27:27;;;;;;;6.45;0.73;;;;;;;4.60;65.85;100669.63;4989916;28;20753;-48
2024/01/20 10:29:54;;;;;;;1.63;1.05;;;;;;;4.66;65.41;100668.13;4989542;28;20050;-53
2024/01/20 10:32:22;;;;;;;0.90;0.60;;;;;;;4.70;65.02;100659.69;4987206;28;20435;-48
2024/01/20 10:34:49;;;;;;;1.08;0.95;;;;;;;4.61;64.98;100671.41;4987432;28;20066;-53
2024/01/20 10:37:20;;;;;;;3.85;0.70;;;;;;;4.63;65.04;100662.03;4989042;28;20074;-51
2024/01/20 10:39:47;;;;;;;2.13;1.00;;;;;;;4.59;65.73;100657.66;4987427;28;20545;-56
2024/01/20 10:42:15;;;;;;;2.35;0.65;;;;;;;4.59;64.93;100672.19;4990981;28;20065;-49
2024/01/20 10:44:50;;;;;;;1.33;0.52;;;;;;;4.59;65.43;100660.22;4984910;28;20046;-48
2024/01/20 10:47:24;;;;;;;2.30;1.00;;;;;;;4.60;65.65;100655.97;4985955;28;20187;-53
2024/01/20 10:49:53;;;;;;;1.40;1.00;;;;;;;4.63;65.83;100644.09;4991673;28;20089;-53
2024/01/20 10:52:22;;;;;;;3.85;0.88;;;;;;;4.60;65.82;100661.09;4985393;28;20081;-52
2024/01/20 10:54:50;;;;;;;1.92;1.73;;;;;;;4.62;65.49;100657.75;4992592;28;20050;-46
2024/01/20 10:57:17;;;;;;;2.60;1.08;;;;;;;4.64;65.38;100639.84;4994862;28;20443;-53
2024/01/20 10:59:45;;;;;;;1.48;1.15;;;;;;;4.68;65.85;100643.34;4993080;28;20042;-51
2024/01/20 11:02:13;;;;;;;1.30;0.80;;;;;;;4.66;66.06;100639.88;4991351;28;20050;-48
2024/01/20 11:04:43;;;;;;;2.20;0.80;;;;;;;4.67;66.38;100639.06;4991428;28;20047;-50
2024/01/20 11:07:12;;;;;;;1.58;0.93;;;;;;;4.69;65.96;100632.28;4994996;28;20458;-49
2024/01/20 11:09:39;;;;;;;2.72;1.73;;;;;;;4.76;65.64;100631.63;4988030;28;20398;-48
2024/01/20 11:12:08;;;;;;;7.72;2.03;;;;;;;4.76;65.88;100624.81;4990449;28;20052;-55
2024/01/20 11:14:35;;;;;;;6.03;1.00;;;;;;;4.78;65.67;100627.44;4985929;28;20065;-50
2024/01/20 11:17:11;;;;;;;2.50;1.13;;;;;;;4.81;65.67;100632.66;4984473;28;20050;-48
2024/01/20 11:19:38;;;;;;;1.67;0.90;;;;;;;4.80;66.01;100624.91;4987171;28;20078;-48
2024/01/20 11:22:24;;;;;;;3.40;1.25;;;;;;;4.79;66.48;100624.03;4988105;28;20081;-51
2024/01/20 11:24:54;;;;;;;0.98;0.73;;;;;;;4.84;66.20;100632.75;4988330;28;20185;-49
2024/01/20 11:27:21;;;;;;;2.65;1.42;;;;;;;4.90;66.48;100634.63;4985639;28;20149;-49
2024/01/20 11:29:47;;;;;;;2.97;0.90;;;;;;;4.91;66.25;100622.66;4988430;28;20061;-46
2024/01/20 11:32:15;;;;;;;2.40;1.00;;;;;;;4.96;66.25;100623.69;4991840;28;20106;-51
2024/01/20 11:34:42;;;;;;;4.47;1.17;;;;;;;5.04;65.90;100619.63;4987750;28;20057;-50